Custom file does not exist C:\wdisplay\webfiles\testtags.txt Borgafjälls vädersida - Nearby METAR Reports

Nearby METAR Reports

 

KSJC - San Jose, California, USA
Distance from station: KO 14km
Pivitetty: 24/01/2021 05:53
Selket
Selket
 Tuulen suunta calm
Tuuli: Tyynt
Lmptila: 9°C
Kastepiste: 5°C
Kosteus: 76%
Ilmanpaine: 1014.9 hPa
Clouds: Selket
Visibility: 16 km
2021/01/24 04:53 KSJC 240453Z 00000KT 10SM CLR 09/05 A2997 RMK AO2 SLP147 T00890050
KNUQ - Moffett Nas/Mtn, California, USA
Distance from station: P 14km
Pivitetty: 24/01/2021 05:50
Selket
Selket
 Tuulen suunta calm
Tuuli: Tyynt
Lmptila: 8°C
Kastepiste: 5°C
Kosteus: 82%
Ilmanpaine: 1014.9 hPa
Clouds: Selket
Visibility: 16 km
2021/01/24 04:50 KNUQ 240450Z AUTO 00000KT 10SM CLR 08/05 A2997 RMK AO2
 
KPAO - Palo Alto, California, USA
Distance from station: PLU 23km
Pivitetty: 24/01/2021 05:47
Selket
Selket
 Tuulen suunta EKA
Tuuli: EKA 6 km/h
Lmptila: 7°C
Kastepiste: 4°C
Kosteus: 81%
Ilmanpaine: 1014.9 hPa
Clouds: Selket
Visibility: 16 km
2021/01/24 04:47 KPAO 240447Z 16003KT 10SM SKC 07/04 A2997 RMK LAST
KRHV - San Jose/Reid, California, USA
Distance from station: IKO 19km
Pivitetty: 24/01/2021 05:50
Selket
Selket
 Tuulen suunta varies
Tuuli: varies 6 km/h
Lmptila: 7°C
Kastepiste: 4°C
Kosteus: 81%
Ilmanpaine: 1014.9 hPa
Clouds: Selket
Visibility: 16 km
2021/01/24 04:50 KRHV 240450Z VRB03KT 10SM SKC 07/04 A2997
 
KOAK - Oakland, California, USA
Distance from station: PLU 50km
Pivitetty: 24/01/2021 05:53
Selket
Selket
 Tuulen suunta I
Tuuli: I 7 km/h
Lmptila: 9°C
Wind Chill: 8°C
Kastepiste: 5°C
Kosteus: 76%
Ilmanpaine: 1014.9 hPa
Clouds: Selket
Visibility: 16 km
2021/01/24 04:53 KOAK 240453Z 09004KT 10SM CLR 09/05 A2997 RMK AO2 SLP146 T00890050
KSQL - San Carlos Airpo, California, USA
Distance from station: LU 34km
Pivitetty: 24/01/2021 05:47
Few Clouds
Few Clouds
 Tuulen suunta LLO
Tuuli: LLO 17 km/h
Lmptila: 9°C
Wind Chill: 7°C
Kastepiste: 6°C
Kosteus: 82%
Ilmanpaine: 1014.9 hPa
Clouds: Few Clouds
Visibility: 16 km
Cloud details: Few Clouds 457 m
2021/01/24 04:47 KSQL 240447Z 25009KT 10SM FEW015 09/06 A2997 RMK LAST
 
KSFO - San Francisco, California, USA
Distance from station: LU 49km
Pivitetty: 24/01/2021 05:56
Selket
Selket
 Tuulen suunta LLU
Tuuli: LLU 6 km/h
Lmptila: 10°C
Kastepiste: 7°C
Kosteus: 82%
Ilmanpaine: 1014.2 hPa
Clouds: Selket
Visibility: 16 km
2021/01/24 04:56 KSFO 240456Z 30003KT 10SM CLR 10/07 A2995 RMK AO2 SLP143 T01000067 $
KE16 - San Martin, California, USA
Distance from station: IKA 43km
Pivitetty: 24/01/2021 05:55
Puolipilvist
Puolipilvist
 Tuulen suunta calm
Tuuli: Tyynt
Lmptila: 5°C
Kastepiste: 4°C
Kosteus: 93%
Ilmanpaine: 1015.6 hPa
Clouds: Puolipilvist
Visibility: 16 km
Cloud details: Puolipilvist 1067 m
2021/01/24 04:55 KE16 240455Z AUTO 00000KT 10SM SCT035 05/04 A2999 RMK AO2
 
KWVI - Watsonville, California, USA
Distance from station: EKA 44km
Pivitetty: 24/01/2021 05:53
Selket
Selket
 Tuulen suunta P
Tuuli: P 6 km/h
Lmptila: 6°C
Kastepiste: 3°C
Kosteus: 81%
Ilmanpaine: 1014.9 hPa
Clouds: Selket
Visibility: 16 km
2021/01/24 04:53 KWVI 240453Z AUTO 36003KT 10SM CLR 06/03 A2997 RMK AO2 SLP148 T00560033
KHAF - Half Moon Bay, California, USA
Distance from station: LLU 50km
Pivitetty: 24/01/2021 05:55
Heikkoa sadetta, Puolipilvist
Heikkoa sadetta, Puolipilvist
 Tuulen suunta PKO
Tuuli: PKO 6 km/h
Lmptila: 4°C
Kastepiste: 3°C
Kosteus: 93%
Ilmanpaine: 1015.2 hPa
Yhteenveto: Heikkoa sadetta
Clouds: Puolipilvist
Visibility: 14 km
Cloud details: Puolipilvist 457 m
2021/01/24 04:55 KHAF 240455Z AUTO 03003KT 9SM -RA SCT015 04/03 A2998 RMK AO2
 
KHWD - Hayward, California, USA
Distance from station: P 44km
Pivitetty: 24/01/2021 05:54
Selket
Selket
 Tuulen suunta IKA
Tuuli: IKA 9 km/h
Lmptila: 7°C
Wind Chill: 6°C
Kastepiste: 4°C
Kosteus: 81%
Ilmanpaine: 1014.6 hPa
Clouds: Selket
Visibility: 16 km
2021/01/24 04:54 KHWD 240454Z AUTO 11005KT 10SM CLR 07/04 A2996 RMK AO2 SLP154 T00720044
KLVK - Livermore, California, USA
Distance from station: PKO 51km
Pivitetty: 24/01/2021 05:53
Selket
Selket
 Tuulen suunta calm
Tuuli: Tyynt
Lmptila: 7°C
Kastepiste: 4°C
Kosteus: 81%
Ilmanpaine: 1014.2 hPa
Clouds: Selket
Visibility: 16 km
2021/01/24 04:53 KLVK 240453Z AUTO 00000KT 10SM CLR 07/04 A2995 RMK AO2 SLP142 T00670039